Time;durP1;ratioP1;P1;durP2;ratioP2;P2;SDS_P1;SDS_P2;PMS_P1;PMS_P2;Temp;Humidity;BMP_temperature;BMP_pressure;BME280_temperature;BME280_humidity;BME280_pressure;Samples;Min_cycle;Max_cycle;Signal;HPM_P1;HPM_P2
2021/03/23 00:02:39;;;;;;;5.53;3.67;;;0.60;99.90;-0.70;97077.00;;;;5066733;28;20473;-78
2021/03/23 00:05:27;;;;;;;4.27;3.40;;;0.60;99.90;-0.70;97072.00;;;;5065778;28;20441;-77
2021/03/23 00:08:27;;;;;;;3.80;3.07;;;0.60;99.90;-0.60;97068.00;;;;5063830;28;20450;-77
2021/03/23 00:11:18;;;;;;;5.67;3.50;;;0.60;99.90;-0.60;97070.00;;;;5066292;28;20426;-77
2021/03/23 00:14:12;;;;;;;4.27;2.73;;;0.60;99.90;-0.50;97079.00;;;;5065515;28;20480;-77
2021/03/23 00:17:00;;;;;;;7.20;3.70;;;0.60;99.90;-0.50;97069.00;;;;5064782;28;20449;-77
2021/03/23 00:19:48;;;;;;;5.57;3.80;;;0.70;99.90;-0.40;97085.00;;;;5065383;28;20465;-77
2021/03/23 00:22:37;;;;;;;5.83;3.77;;;0.70;99.90;-0.40;97077.00;;;;5065248;28;20470;-77
2021/03/23 00:25:26;;;;;;;5.27;3.60;;;0.80;99.90;-0.30;97083.00;;;;5066594;28;20434;-77
2021/03/23 00:28:13;;;;;;;4.60;2.57;;;0.80;99.90;-0.40;97080.00;;;;5069972;28;20454;-77
2021/03/23 00:31:02;;;;;;;3.70;2.80;;;0.80;99.90;-0.40;97095.00;;;;5070153;28;20438;-77
2021/03/23 00:33:50;;;;;;;5.17;2.97;;;0.80;99.90;-0.30;97100.00;;;;5074693;28;20835;-77
2021/03/23 00:36:40;;;;;;;3.73;3.30;;;0.90;99.90;-0.30;97099.00;;;;5072322;28;20486;-77
2021/03/23 00:39:29;;;;;;;8.33;3.73;;;0.90;99.90;-0.40;97097.00;;;;5083625;28;20425;-77
2021/03/23 00:42:18;;;;;;;4.67;3.90;;;0.90;99.90;-0.50;97086.00;;;;5083705;28;20429;-76
2021/03/23 00:45:08;;;;;;;7.70;3.10;;;0.90;99.90;-0.50;97070.00;;;;5083625;28;20991;-77
2021/03/23 00:47:56;;;;;;;6.23;3.43;;;0.80;99.90;-0.50;97082.00;;;;5084888;28;20460;-77
2021/03/23 00:50:43;;;;;;;3.10;2.80;;;0.80;99.90;-0.40;97084.00;;;;5067131;28;20430;-76
2021/03/23 00:53:31;;;;;;;3.40;3.10;;;0.80;99.90;-0.50;97082.00;;;;5063143;28;20434;-77
2021/03/23 00:56:19;;;;;;;4.33;3.07;;;0.80;99.90;-0.50;97087.00;;;;5072341;28;20430;-77
2021/03/23 00:59:08;;;;;;;3.40;2.73;;;-0.60;99.90;-0.50;97081.00;;;;5078751;28;21153;-77
2021/03/23 01:01:56;;;;;;;3.67;3.17;;;0.80;99.90;-0.50;97084.00;;;;5062429;28;20435;-77
2021/03/23 01:04:44;;;;;;;3.93;3.13;;;0.80;99.90;-0.50;97086.00;;;;5068927;28;20465;-75
2021/03/23 01:07:32;;;;;;;3.47;3.17;;;0.70;99.90;-0.50;97072.00;;;;5068740;28;20550;-76
2021/03/23 01:10:23;;;;;;;4.00;2.70;;;0.70;99.90;-0.80;97069.00;;;;5066227;28;20422;-76
2021/03/23 01:13:11;;;;;;;3.97;3.67;;;0.70;99.90;-1.00;97072.00;;;;5068362;28;20434;-77
2021/03/23 01:16:00;;;;;;;6.80;4.37;;;0.50;99.90;-1.00;97067.00;;;;5068229;28;20434;-76
2021/03/23 01:18:48;;;;;;;5.67;3.10;;;0.40;99.90;-1.10;97073.00;;;;5067913;28;21218;-76
2021/03/23 01:21:37;;;;;;;3.93;2.70;;;0.30;99.90;-1.20;97064.00;;;;5067135;28;20944;-77
2021/03/23 01:24:26;;;;;;;6.07;3.27;;;0.30;99.90;-1.10;97069.00;;;;5068911;28;20466;-77
2021/03/23 01:27:14;;;;;;;5.17;3.27;;;0.20;99.90;-1.20;97070.00;;;;5067889;28;20461;-75
2021/03/23 01:30:02;;;;;;;3.70;2.90;;;0.20;99.90;-1.30;97076.00;;;;5067442;28;20437;-76
2021/03/23 01:32:51;;;;;;;3.60;2.97;;;0.10;99.90;-1.30;97071.00;;;;5066984;28;20434;-76
2021/03/23 01:35:39;;;;;;;5.47;3.07;;;0.10;99.90;-1.30;97069.00;;;;5066803;28;20824;-76
2021/03/23 01:38:27;;;;;;;3.63;2.83;;;0.10;99.90;-1.50;97063.00;;;;5083131;28;20847;-76
2021/03/23 01:41:15;;;;;;;3.70;3.23;;;0.00;99.90;-1.50;97064.00;;;;5081956;28;20437;-77
2021/03/23 01:44:04;;;;;;;6.40;3.43;;;0.00;99.90;-1.60;97058.00;;;;5081747;28;20473;-75
2021/03/23 01:46:52;;;;;;;4.47;3.10;;;-0.10;99.90;-1.60;97060.00;;;;5086242;28;20433;-75
2021/03/23 01:49:44;;;;;;;2.53;2.33;;;-0.20;99.90;-1.60;97059.00;;;;5087218;28;20820;-75
2021/03/23 01:52:32;;;;;;;5.00;2.73;;;-0.20;99.90;-1.50;97055.00;;;;5068056;28;20430;-75
2021/03/23 01:55:21;;;;;;;4.07;3.13;;;-0.20;99.90;-1.50;97059.00;;;;5067728;28;20441;-77
2021/03/23 01:58:11;;;;;;;6.63;2.60;;;-0.20;99.90;-1.50;97051.00;;;;5071212;28;20446;-77
2021/03/23 02:00:59;;;;;;;4.00;2.83;;;-0.20;99.90;-1.50;97062.00;;;;5066292;28;20439;-76
2021/03/23 02:03:49;;;;;;;5.97;3.20;;;-0.20;99.90;-1.50;97061.00;;;;5066350;28;21000;-77
2021/03/23 02:06:44;;;;;;;5.80;3.37;;;-0.20;99.90;-1.50;97056.00;;;;5066591;28;21085;-77
2021/03/23 02:09:35;;;;;;;4.87;3.00;;;-0.20;99.90;-1.50;97070.00;;;;5065658;28;20800;-76
2021/03/23 02:12:27;;;;;;;5.67;3.17;;;-0.20;99.90;-1.50;97058.00;;;;5067548;28;20431;-76
2021/03/23 02:15:18;;;;;;;3.40;2.80;;;-0.20;99.90;-1.60;97063.00;;;;5066330;28;20434;-76
2021/03/23 02:18:15;;;;;;;3.67;3.27;;;-0.20;99.90;-1.60;97060.00;;;;5075523;28;20858;-76
2021/03/23 02:21:08;;;;;;;3.17;2.87;;;-0.20;99.90;-1.60;97067.00;;;;5075013;28;20464;-76
2021/03/23 02:23:56;;;;;;;3.43;2.90;;;-0.20;99.90;-1.60;97056.00;;;;5066457;28;21004;-77
2021/03/23 02:26:45;;;;;;;6.63;2.73;;;-0.30;99.90;-1.60;97064.00;;;;5066336;28;21047;-75
2021/03/23 02:29:33;;;;;;;3.93;3.53;;;-0.30;99.90;-1.60;97056.00;;;;5065369;28;20937;-75
2021/03/23 02:32:21;;;;;;;2.60;2.40;;;-0.30;99.90;-1.70;97062.00;;;;5066316;28;20434;-75
2021/03/23 02:35:10;;;;;;;3.23;2.73;;;-0.30;99.90;-1.70;97054.00;;;;5068378;28;20976;-77
2021/03/23 02:38:00;;;;;;;3.50;3.20;;;-0.30;99.90;-1.70;97054.00;;;;5079484;28;20513;-77
2021/03/23 02:40:49;;;;;;;3.10;2.80;;;-0.30;99.90;-1.80;97060.00;;;;5072499;28;20502;-76
2021/03/23 02:43:37;;;;;;;5.57;3.47;;;-0.30;99.90;-1.80;97058.00;;;;5065972;28;20477;-76
2021/03/23 02:46:25;;;;;;;5.73;3.43;;;-0.40;99.90;-1.80;97059.00;;;;5067390;28;20447;-76
2021/03/23 02:49:13;;;;;;;2.70;2.43;;;-0.40;99.90;-1.90;97049.00;;;;5072409;28;20457;-75
2021/03/23 02:52:02;;;;;;;3.80;2.93;;;-0.50;99.90;-1.90;97052.00;;;;5073461;28;20423;-76
2021/03/23 02:54:51;;;;;;;6.13;2.60;;;-0.50;99.90;-1.90;97048.00;;;;5066461;28;20492;-76
2021/03/23 02:57:39;;;;;;;8.60;3.90;;;-0.50;99.90;-2.00;97049.00;;;;5072211;28;20972;-77
2021/03/23 03:00:27;;;;;;;4.90;3.20;;;-0.50;99.90;-2.00;97049.00;;;;5068641;28;20430;-76
2021/03/23 03:03:15;;;;;;;3.97;3.57;;;-0.60;99.90;-2.00;97051.00;;;;5064903;28;20561;-77
2021/03/23 03:06:12;;;;;;;5.33;2.93;;;-0.60;99.90;-2.10;97053.00;;;;5065721;28;20531;-76
2021/03/23 03:09:01;;;;;;;3.40;2.80;;;-0.70;99.90;-2.10;97052.00;;;;5064513;28;20468;-76
2021/03/23 03:11:51;;;;;;;3.83;3.23;;;-0.60;99.90;-2.20;97031.00;;;;5065154;28;20430;-76
2021/03/23 03:14:39;;;;;;;5.37;3.47;;;-0.70;99.90;-2.10;97045.00;;;;5066903;28;20441;-76
2021/03/23 03:17:28;;;;;;;5.97;3.20;;;-0.70;99.90;-2.20;97045.00;;;;5066388;28;20462;-76
2021/03/23 03:20:17;;;;;;;6.27;2.97;;;-0.70;99.90;-2.30;97062.00;;;;5066526;28;20445;-76
2021/03/23 03:23:05;;;;;;;4.63;3.27;;;-0.80;99.90;-2.20;97063.00;;;;5065314;28;21009;-75
2021/03/23 03:25:54;;;;;;;4.33;3.07;;;-0.80;99.90;-2.30;97044.00;;;;5064260;28;20811;-75
2021/03/23 03:28:50;;;;;;;2.87;2.67;;;-0.90;99.90;-2.40;97053.00;;;;5064946;28;20470;-75
2021/03/23 03:31:38;;;;;;;3.33;3.03;;;-0.90;99.90;-2.50;97056.00;;;;5064407;28;20812;-74
2021/03/23 03:34:26;;;;;;;3.80;3.40;;;-0.90;99.90;-2.50;97056.00;;;;5065426;28;20434;-75
2021/03/23 03:37:14;;;;;;;5.57;3.57;;;-1.00;99.90;-2.70;97053.00;;;;5071307;28;20579;-77
2021/03/23 03:40:02;;;;;;;4.40;3.80;;;-1.10;99.90;-2.70;97048.00;;;;5077792;28;20449;-75
2021/03/23 03:42:51;;;;;;;4.40;3.17;;;-1.20;99.90;-2.70;97053.00;;;;5065440;28;20481;-76
2021/03/23 03:45:40;;;;;;;5.87;3.77;;;-1.20;99.90;-2.80;97045.00;;;;5078881;28;20426;-76
2021/03/23 03:48:29;;;;;;;4.33;3.40;;;-1.10;99.90;-2.80;97049.00;;;;5065581;28;20457;-77
2021/03/23 03:51:17;;;;;;;7.33;3.87;;;-1.30;99.90;-2.70;97051.00;;;;5064443;28;20423;-75
2021/03/23 03:54:06;;;;;;;4.73;3.83;;;-1.30;99.90;-2.60;97056.00;;;;5062596;28;20439;-75
2021/03/23 03:56:54;;;;;;;3.63;3.03;;;-1.30;99.90;-2.60;97064.00;;;;5062276;28;20437;-76
2021/03/23 03:59:41;;;;;;;4.43;3.27;;;-1.30;99.90;-2.80;97052.00;;;;5080958;28;20442;-76
2021/03/23 04:02:30;;;;;;;6.03;3.33;;;-1.30;99.90;-2.90;97066.00;;;;5065765;28;20427;-77
2021/03/23 04:05:24;;;;;;;3.63;3.20;;;-1.40;99.90;-2.90;97055.00;;;;5065310;28;20433;-76
2021/03/23 04:08:15;;;;;;;3.67;3.37;;;-1.40;99.90;-2.90;97054.00;;;;5070753;28;20461;-76
2021/03/23 04:11:06;;;;;;;5.13;3.10;;;-1.40;99.90;-2.90;97059.00;;;;5070180;28;20437;-76
2021/03/23 04:13:54;;;;;;;3.33;3.03;;;-1.50;99.90;-2.90;97050.00;;;;5077967;28;20438;-76
2021/03/23 04:16:42;;;;;;;3.73;2.83;;;-1.50;99.90;-3.00;97052.00;;;;5064743;28;20435;-76
2021/03/23 04:19:31;;;;;;;5.93;3.57;;;-1.50;99.90;-3.00;97056.00;;;;5064821;28;20472;-76
2021/03/23 04:22:19;;;;;;;4.90;3.50;;;-1.50;99.90;-3.00;97064.00;;;;5065458;28;20491;-76
2021/03/23 04:25:09;;;;;;;5.37;3.17;;;-1.50;99.90;-2.90;97066.00;;;;5064156;28;20441;-76
2021/03/23 04:27:58;;;;;;;6.30;2.80;;;-1.50;99.90;-3.00;97071.00;;;;5065154;28;20446;-76
2021/03/23 04:30:47;;;;;;;4.50;3.93;;;-1.50;99.90;-3.00;97073.00;;;;5065064;28;20475;-76
2021/03/23 04:33:35;;;;;;;4.83;3.30;;;-1.50;99.90;-3.00;97071.00;;;;5064368;28;20418;-76
2021/03/23 04:36:23;;;;;;;5.03;3.50;;;-1.60;99.90;-3.20;97062.00;;;;5064847;28;20438;-77
2021/03/23 04:39:13;;;;;;;3.97;3.40;;;-1.60;99.90;-3.20;97066.00;;;;5069171;28;20455;-76
2021/03/23 04:42:01;;;;;;;9.07;4.03;;;-1.70;99.90;-3.00;97063.00;;;;5081930;28;20437;-77
2021/03/23 04:44:48;;;;;;;5.30;3.87;;;-1.70;99.90;-3.00;97071.00;;;;5086213;28;21003;-76
2021/03/23 04:47:36;;;;;;;4.70;3.63;;;-1.60;99.90;-3.10;97059.00;;;;5086103;28;20452;-76
2021/03/23 04:50:26;;;;;;;8.03;3.27;;;-1.70;99.90;-3.30;97072.00;;;;5079831;28;20433;-76
2021/03/23 04:53:24;;;;;;;6.13;4.10;;;-1.70;99.90;-3.10;97083.00;;;;5080471;28;20999;-77
2021/03/23 04:56:21;;;;;;;5.17;4.10;;;-1.70;99.90;-3.20;97083.00;;;;5082472;28;20436;-76
2021/03/23 04:59:10;;;;;;;4.57;3.90;;;-1.70;99.90;-3.10;97082.00;;;;5080496;28;20450;-76
2021/03/23 05:01:58;;;;;;;3.67;3.37;;;-1.70;99.90;-3.10;97092.00;;;;5073379;28;20521;-76
2021/03/23 05:04:46;;;;;;;4.27;3.33;;;-1.70;99.90;-2.90;97084.00;;;;5085161;28;20473;-75
2021/03/23 05:07:43;;;;;;;6.47;3.93;;;-1.60;99.90;-2.90;97097.00;;;;5080869;28;20472;-77
2021/03/23 05:10:32;;;;;;;7.50;3.53;;;-1.60;99.90;-2.70;97095.00;;;;5083355;28;20454;-76
2021/03/23 05:13:20;;;;;;;8.93;4.63;;;-1.50;99.90;-2.70;97089.00;;;;5074677;28;21005;-75
2021/03/23 05:16:08;;;;;;;7.23;4.07;;;-1.40;99.90;-2.60;97103.00;;;;5076831;28;20441;-75
2021/03/23 05:18:56;;;;;;;8.63;3.97;;;-1.40;99.90;-2.80;97085.00;;;;5072314;28;20830;-77
2021/03/23 05:21:44;;;;;;;7.37;4.50;;;-1.40;99.90;-2.70;97092.00;;;;5078264;28;20849;-77
2021/03/23 05:24:32;;;;;;;5.67;4.07;;;-1.40;99.90;-2.60;97100.00;;;;5086379;28;21265;-75
2021/03/23 05:27:21;;;;;;;7.40;4.00;;;-1.30;99.90;-2.50;97100.00;;;;5072950;28;20527;-76
2021/03/23 05:30:12;;;;;;;7.47;3.67;;;-1.30;99.90;-2.60;97104.00;;;;5082008;28;20456;-76
2021/03/23 05:33:00;;;;;;;6.00;4.57;;;-1.20;99.90;-2.50;97110.00;;;;5081556;28;20436;-76
2021/03/23 05:35:50;;;;;;;9.00;5.63;;;-1.10;99.90;-2.40;97111.00;;;;5085122;28;20960;-76
2021/03/23 05:38:38;;;;;;;5.37;3.83;;;-1.20;99.90;-2.30;97110.00;;;;5078811;28;20450;-75
2021/03/23 05:41:34;;;;;;;7.83;4.30;;;-1.10;99.90;-2.30;97118.00;;;;5079135;28;20458;-76
2021/03/23 05:45:08;;;;;;;7.53;4.97;;;-1.00;99.90;-2.20;97117.00;;;;5081928;28;21216;-75
2021/03/23 05:48:18;;;;;;;5.50;4.70;;;-1.00;99.90;-2.20;97104.00;;;;5068405;28;20460;-76
2021/03/23 05:51:16;;;;;;;5.47;4.27;;;-3.00;99.90;-2.00;97112.00;;;;5084892;28;20451;-76
2021/03/23 05:54:15;;;;;;;5.37;4.13;;;-0.90;99.90;-1.80;97106.00;;;;5082534;28;20431;-75
2021/03/23 05:57:13;;;;;;;4.17;3.37;;;-0.80;99.90;-1.70;97117.00;;;;5081056;28;20433;-75
2021/03/23 06:00:08;;;;;;;6.20;4.03;;;-0.60;99.90;-1.60;97123.00;;;;5085958;28;20413;-74
2021/03/23 06:03:04;;;;;;;6.03;4.07;;;-0.50;99.90;-1.60;97120.00;;;;5077288;28;20450;-75
2021/03/23 06:06:03;;;;;;;5.77;3.83;;;-0.40;99.90;-1.40;97122.00;;;;5072096;28;20442;-75
2021/03/23 06:08:51;;;;;;;10.00;4.53;;;-0.30;99.90;-1.20;97125.00;;;;5077890;28;20514;-75
2021/03/23 06:11:56;;;;;;;6.50;4.20;;;-0.20;99.90;-1.10;97133.00;;;;5081486;28;20658;-76
2021/03/23 06:14:54;;;;;;;8.57;5.30;;;0.00;99.90;-1.00;97131.00;;;;5085110;28;20425;-75
2021/03/23 06:17:52;;;;;;;11.10;4.33;;;0.10;99.90;-0.80;97118.00;;;;5079237;28;20885;-75
2021/03/23 06:20:58;;;;;;;6.60;4.23;;;0.20;99.90;-0.60;97132.00;;;;5076747;28;20429;-75
2021/03/23 06:24:07;;;;;;;6.07;4.20;;;0.30;99.90;-0.40;97129.00;;;;5066183;28;20462;-75
2021/03/23 06:27:05;;;;;;;12.30;4.17;;;0.50;99.90;-0.30;97129.00;;;;5079321;28;20438;-75
2021/03/23 06:30:18;;;;;;;7.33;4.00;;;0.60;99.90;-0.10;97142.00;;;;5066357;28;20495;-76
2021/03/23 06:33:11;;;;;;;9.33;5.13;;;0.80;99.90;-0.20;97138.00;;;;5076348;28;20866;-75
2021/03/23 06:36:02;;;;;;;5.63;4.60;;;2.60;99.90;0.10;97144.00;;;;5081890;28;20787;-75
2021/03/23 06:38:53;;;;;;;6.17;4.17;;;1.10;99.90;0.20;97141.00;;;;5080104;28;20583;-76
2021/03/23 06:41:57;;;;;;;4.53;3.80;;;1.20;99.90;0.30;97142.00;;;;5079674;28;20433;-74
2021/03/23 06:44:46;;;;;;;8.33;4.00;;;1.30;99.90;0.60;97144.00;;;;5075545;28;21224;-75
2021/03/23 06:47:38;;;;;;;5.97;3.90;;;1.40;99.90;0.80;97136.00;;;;5076690;28;20519;-75
2021/03/23 06:50:35;;;;;;;10.47;5.40;;;1.60;99.90;0.50;97138.00;;;;5081771;28;20450;-76
2021/03/23 06:53:30;;;;;;;8.73;4.80;;;1.70;99.90;0.70;97139.00;;;;5082486;28;20430;-76
2021/03/23 06:56:21;;;;;;;8.80;4.80;;;1.70;99.90;1.00;97143.00;;;;5079589;28;20433;-77
2021/03/23 06:59:16;;;;;;;5.73;3.60;;;1.90;99.90;1.20;97144.00;;;;5076338;28;20449;-77
2021/03/23 07:02:31;;;;;;;13.70;5.13;;;2.00;99.90;1.40;97153.00;;;;5078681;28;20457;-76
2021/03/23 07:05:35;;;;;;;5.70;4.40;;;2.20;99.90;1.70;97173.00;;;;5072989;28;20480;-77
2021/03/23 07:08:25;;;;;;;12.60;7.37;;;2.40;99.90;1.90;97152.00;;;;5081996;28;21172;-77
2021/03/23 07:11:13;;;;;;;7.67;4.30;;;2.60;99.90;2.10;97141.00;;;;5080858;28;20433;-77
2021/03/23 07:14:21;;;;;;;9.30;3.50;;;2.80;99.90;2.30;97165.00;;;;5072599;28;20425;-77
2021/03/23 07:17:29;;;;;;;7.50;3.17;;;3.00;99.90;2.70;97160.00;;;;5084384;28;20476;-77
2021/03/23 07:20:42;;;;;;;7.17;2.97;;;3.20;99.90;3.10;97162.00;;;;5074998;28;20457;-78
2021/03/23 07:23:37;;;;;;;4.10;3.10;;;3.50;99.90;3.30;97170.00;;;;5080207;28;20469;-77
2021/03/23 07:26:29;;;;;;;4.43;3.03;;;3.80;99.90;3.50;97180.00;;;;5084110;28;20432;-77
2021/03/23 07:29:29;;;;;;;10.53;4.37;;;4.00;99.90;3.60;97181.00;;;;5083282;28;20465;-77
2021/03/23 07:32:37;;;;;;;6.07;4.33;;;4.20;99.90;3.70;97182.00;;;;5080778;28;20434;-78
2021/03/23 07:35:32;;;;;;;9.17;4.77;;;4.50;99.90;3.90;97173.00;;;;5071818;28;20844;-75
2021/03/23 07:38:36;;;;;;;9.73;3.77;;;4.60;94.80;4.00;97178.00;;;;5074187;28;20466;-75
2021/03/23 07:41:32;;;;;;;6.00;4.37;;;4.70;95.90;4.00;97188.00;;;;5078058;28;20817;-75
2021/03/23 07:44:35;;;;;;;19.27;8.40;;;4.80;95.80;4.00;97183.00;;;;5077682;28;20623;-75
2021/03/23 07:47:33;;;;;;;14.00;5.93;;;4.90;95.90;4.00;97183.00;;;;5074172;28;20273;-75
2021/03/23 07:50:27;;;;;;;9.60;5.13;;;4.90;95.50;4.10;97183.00;;;;5083517;28;20206;-75
2021/03/23 07:53:23;;;;;;;11.27;6.30;;;5.00;90.70;4.20;97183.00;;;;5065442;28;20200;-75
2021/03/23 07:56:40;;;;;;;8.97;4.23;;;5.10;91.00;4.30;97195.00;;;;5062905;28;20200;-75
2021/03/23 07:59:56;;;;;;;11.17;6.13;;;5.20;88.80;4.30;97196.00;;;;5078151;28;20218;-75
2021/03/23 08:03:31;;;;;;;6.50;4.63;;;5.20;89.40;4.50;97199.00;;;;5074520;28;20211;-76
2021/03/23 08:06:25;;;;;;;9.63;3.00;;;5.30;90.60;4.50;97192.00;;;;5081559;28;20210;-75
2021/03/23 08:09:40;;;;;;;7.47;3.23;;;5.40;89.40;4.60;97198.00;;;;5073859;28;20208;-76
2021/03/23 08:13:13;;;;;;;4.80;2.57;;;5.50;89.00;4.70;97190.00;;;;5068262;28;20659;-76
2021/03/23 08:16:47;;;;;;;16.87;3.73;;;5.60;83.70;4.90;97201.00;;;;5001957;28;20215;-76
2021/03/23 08:19:53;;;;;;;10.43;2.90;;;5.70;84.70;5.00;97199.00;;;;5065340;28;20281;-76
2021/03/23 08:23:27;;;;;;;3.53;2.80;;;5.80;85.60;5.20;97205.00;;;;5082410;28;20604;-76
2021/03/23 08:26:29;;;;;;;7.40;3.23;;;5.90;86.70;5.10;97211.00;;;;5075030;28;20199;-76
2021/03/23 08:29:21;;;;;;;6.50;3.37;;;6.00;84.70;5.30;97199.00;;;;5080925;28;20203;-76
2021/03/23 08:32:21;;;;;;;11.90;4.27;;;6.10;82.60;5.50;97205.00;;;;5077246;28;20932;-76
2021/03/23 08:35:27;;;;;;;3.07;2.60;;;6.20;83.50;5.20;97199.00;;;;5078770;28;20199;-76
2021/03/23 08:38:32;;;;;;;7.77;4.43;;;6.20;76.60;5.60;97206.00;;;;5063307;28;20231;-76
2021/03/23 08:41:33;;;;;;;6.03;4.23;;;6.30;78.70;5.50;97219.00;;;;5079200;28;20191;-76
2021/03/23 08:44:33;;;;;;;7.20;3.00;;;6.40;74.30;5.60;97225.00;;;;5084018;28;20223;-76
2021/03/23 08:47:29;;;;;;;4.73;2.77;;;6.50;73.10;5.40;97218.00;;;;5069823;28;20230;-74
2021/03/23 08:50:26;;;;;;;3.23;2.80;;;6.50;69.90;5.40;97230.00;;;;5072120;28;20234;-75
2021/03/23 08:53:57;;;;;;;4.43;3.20;;;6.40;72.80;5.50;97227.00;;;;5073918;28;20203;-75
2021/03/23 08:56:57;;;;;;;3.50;2.57;;;6.50;74.20;5.50;97231.00;;;;5064870;28;20212;-74
2021/03/23 08:59:54;;;;;;;4.00;2.53;;;6.50;70.70;5.30;97237.00;;;;5067321;28;20691;-74
2021/03/23 09:02:42;;;;;;;4.00;2.73;;;6.40;68.10;5.40;97232.00;;;;5064797;28;20204;-73
2021/03/23 09:05:57;;;;;;;5.67;3.07;;;6.40;69.70;5.60;97233.00;;;;5064511;28;20281;-72
2021/03/23 09:08:50;;;;;;;3.97;3.07;;;6.50;70.50;5.50;97236.00;;;;5078909;28;20219;-76
2021/03/23 09:12:08;;;;;;;5.33;3.50;;;6.50;68.70;5.50;97228.00;;;;5079125;28;20203;-73
2021/03/23 09:15:19;;;;;;;5.30;3.67;;;6.50;67.70;5.70;97233.00;;;;5071247;28;20210;-73
2021/03/23 09:18:27;;;;;;;6.93;2.77;;;6.60;69.30;5.80;97234.00;;;;5078488;28;20702;-76
2021/03/23 09:21:15;;;;;;;3.33;2.60;;;6.70;68.60;5.80;97235.00;;;;5081280;28;20215;-73
2021/03/23 09:24:25;;;;;;;8.07;3.27;;;6.70;67.80;5.80;97249.00;;;;5076699;28;20261;-75
2021/03/23 09:28:01;;;;;;;6.60;3.00;;;6.80;67.30;6.20;97248.00;;;;5079194;28;20329;-74
2021/03/23 09:30:54;;;;;;;4.53;2.93;;;6.90;68.30;6.60;97236.00;;;;5086760;28;20199;-75
2021/03/23 09:33:49;;;;;;;8.10;4.47;;;7.10;69.60;6.80;97231.00;;;;5068063;28;20553;-74
2021/03/23 09:36:50;;;;;;;4.83;3.20;;;7.30;70.60;6.70;97232.00;;;;5082285;28;20330;-73
2021/03/23 09:39:48;;;;;;;10.70;3.70;;;7.40;68.30;6.70;97230.00;;;;5066704;28;20204;-73
2021/03/23 09:42:38;;;;;;;5.77;3.47;;;7.50;67.50;6.60;97225.00;;;;5095656;28;20739;-73
2021/03/23 09:45:33;;;;;;;6.40;3.70;;;7.60;65.70;6.40;97222.00;;;;5076064;28;20235;-73
2021/03/23 09:48:45;;;;;;;6.37;3.43;;;7.50;63.90;6.20;97217.00;;;;5067197;28;20703;-73
2021/03/23 09:51:47;;;;;;;4.17;3.33;;;7.40;62.70;6.10;97219.00;;;;5068352;28;20204;-73
2021/03/23 09:54:39;;;;;;;10.03;4.93;;;7.20;62.90;6.60;97207.00;;;;5082776;28;20206;-74
2021/03/23 09:57:51;;;;;;;8.40;4.50;;;7.30;66.90;6.80;97208.00;;;;5083192;28;20218;-74
2021/03/23 10:00:39;;;;;;;4.77;3.53;;;7.40;67.50;7.00;97216.00;;;;5082140;28;20219;-74
2021/03/23 10:03:34;;;;;;;6.13;3.47;;;7.50;67.00;6.90;97217.00;;;;5084750;28;20392;-73
2021/03/23 10:06:26;;;;;;;3.70;2.83;;;7.60;65.40;6.70;97199.00;;;;5077958;28;20216;-74
2021/03/23 10:09:25;;;;;;;4.03;2.73;;;7.60;64.00;7.10;97206.00;;;;5075364;28;20606;-76
2021/03/23 10:12:28;;;;;;;5.07;3.23;;;7.80;63.90;7.20;97208.00;;;;5081267;28;20691;-74
2021/03/23 10:15:32;;;;;;;5.87;3.33;;;7.90;64.00;8.20;97189.00;;;;5075799;28;20203;-74
2021/03/23 10:18:23;;;;;;;5.30;3.47;;;8.30;62.90;8.00;97193.00;;;;5068081;28;20777;-75
2021/03/23 10:21:14;;;;;;;28.13;12.90;;;8.60;62.90;8.40;97195.00;;;;5078831;28;20228;-75
2021/03/23 10:24:13;;;;;;;4.00;3.27;;;8.80;62.80;8.30;97186.00;;;;5078054;28;20227;-74
2021/03/23 10:27:01;;;;;;;9.43;4.17;;;9.00;61.30;8.90;97150.00;;;;5075966;28;20211;-75
2021/03/23 10:30:07;;;;;;;4.77;2.50;;;9.30;62.80;7.90;97193.00;;;;5080958;28;20199;-75
2021/03/23 10:32:59;;;;;;;8.00;4.00;;;9.10;59.30;8.10;97182.00;;;;5079146;28;20191;-75
2021/03/23 10:35:56;;;;;;;3.37;3.00;;;9.10;59.70;8.60;97160.00;;;;5077006;28;20199;-74
2021/03/23 10:38:47;;;;;;;6.13;5.30;;;9.30;61.80;9.20;97167.00;;;;5080447;28;20254;-75
2021/03/23 10:41:37;;;;;;;4.00;2.73;;;9.50;62.90;8.90;97153.00;;;;5081647;28;20207;-74
2021/03/23 10:44:34;;;;;;;9.50;4.57;;;9.70;59.10;8.50;97179.00;;;;5078765;28;20231;-74
2021/03/23 10:47:33;;;;;;;3.67;2.57;;;9.60;61.10;8.00;97149.00;;;;5079488;28;20222;-74
2021/03/23 10:50:26;;;;;;;5.53;2.70;;;9.30;58.50;9.60;97142.00;;;;5080536;28;20480;-74
2021/03/23 10:53:20;;;;;;;3.00;1.97;;;9.50;58.20;10.10;97152.00;;;;5069025;28;20663;-74
2021/03/23 10:56:21;;;;;;;14.43;4.50;;;10.00;57.90;8.30;97154.00;;;;5072045;28;20678;-74
2021/03/23 10:59:11;;;;;;;4.80;3.00;;;9.70;56.50;7.90;97189.00;;;;5075231;28;20250;-75
2021/03/23 11:02:05;;;;;;;3.40;2.50;;;9.40;56.60;8.70;97165.00;;;;5078118;28;20236;-74
2021/03/23 11:05:08;;;;;;;8.50;4.00;;;9.40;56.60;9.20;97172.00;;;;5081020;28;20227;-74
2021/03/23 11:08:01;;;;;;;3.83;2.13;;;9.60;58.30;10.20;97146.00;;;;5068583;28;20711;-74
2021/03/23 11:10:50;;;;;;;7.13;3.00;;;10.00;59.00;8.00;97171.00;;;;5064732;28;20581;-75
2021/03/23 11:13:38;;;;;;;3.53;2.53;;;9.70;55.00;9.40;97134.00;;;;5074693;28;20200;-73
2021/03/23 11:16:30;;;;;;;4.63;2.00;;;9.70;56.90;11.30;97138.00;;;;5069343;28;20211;-75
2021/03/23 11:19:27;;;;;;;2.93;2.43;;;10.50;58.20;11.10;97138.00;;;;5068099;28;20204;-74
2021/03/23 11:22:22;;;;;;;2.83;2.10;;;11.20;56.20;11.60;97183.00;;;;5084313;28;20694;-75
2021/03/23 11:25:19;;;;;;;3.93;2.13;;;11.80;54.70;11.90;97196.00;;;;5075188;28;20227;-74
2021/03/23 11:28:12;;;;;;;2.13;1.47;;;12.20;54.80;10.00;97180.00;;;;5077575;28;20238;-74
2021/03/23 11:31:02;;;;;;;5.40;2.03;;;11.90;52.00;9.90;97187.00;;;;5074239;28;20242;-73
2021/03/23 11:33:51;;;;;;;5.67;2.13;;;11.50;53.50;9.80;97131.00;;;;5068802;28;20237;-73
2021/03/23 11:36:39;;;;;;;4.00;2.33;;;11.40;53.80;10.40;97158.00;;;;5065852;28;20204;-75
2021/03/23 11:39:27;;;;;;;3.00;1.70;;;11.30;53.60;9.80;97166.00;;;;5065936;28;20581;-73
2021/03/23 11:42:23;;;;;;;4.70;2.17;;;11.10;53.50;8.30;97165.00;;;;5080500;28;20628;-73
2021/03/23 11:45:27;;;;;;;3.83;1.90;;;10.40;52.60;8.50;97155.00;;;;5074249;28;20230;-73
2021/03/23 11:48:17;;;;;;;3.30;2.03;;;9.90;54.10;10.60;97139.00;;;;5078176;28;20740;-74
2021/03/23 11:51:07;;;;;;;2.23;2.00;;;10.30;55.90;10.60;97159.00;;;;5068275;28;20230;-75
2021/03/23 11:53:56;;;;;;;5.17;2.07;;;10.70;55.10;9.90;97140.00;;;;5083599;28;20744;-74
2021/03/23 11:56:44;;;;;;;2.43;2.23;;;10.80;53.80;10.50;97158.00;;;;5071697;28;20212;-74
2021/03/23 11:59:34;;;;;;;3.90;1.23;;;10.90;54.20;9.50;97158.00;;;;5076185;28;20210;-74
2021/03/23 12:02:23;;;;;;;2.93;2.00;;;10.90;53.10;8.10;97151.00;;;;5073264;28;20200;-77
2021/03/23 12:05:13;;;;;;;3.17;2.40;;;10.10;53.50;8.40;97163.00;;;;5079383;28;20295;-75
2021/03/23 12:08:14;;;;;;;2.30;1.80;;;9.70;54.20;8.70;97140.00;;;;5080373;28;20219;-74
2021/03/23 12:11:13;;;;;;;4.93;2.73;;;9.50;55.10;8.40;97150.00;;;;5070637;28;20235;-75
2021/03/23 12:14:20;;;;;;;2.87;2.33;;;9.50;55.00;8.30;97141.00;;;;5073039;28;20204;-75
2021/03/23 12:17:13;;;;;;;3.40;2.27;;;9.30;55.90;7.70;97145.00;;;;5082514;28;20695;-75
2021/03/23 12:20:09;;;;;;;2.97;2.20;;;9.00;55.00;7.90;97147.00;;;;5088974;28;20207;-75
2021/03/23 12:22:57;;;;;;;3.33;2.37;;;8.80;55.70;8.30;97144.00;;;;5078612;28;20863;-76
2021/03/23 12:25:46;;;;;;;3.00;2.30;;;9.00;56.60;8.40;97139.00;;;;5073581;28;20275;-75
2021/03/23 12:28:34;;;;;;;1.97;1.83;;;9.10;55.80;8.80;97136.00;;;;5064489;28;20236;-76
2021/03/23 12:31:22;;;;;;;7.13;3.17;;;9.30;54.80;9.00;97137.00;;;;5065208;28;20200;-77
2021/03/23 12:34:11;;;;;;;3.90;2.57;;;9.50;55.60;8.40;97134.00;;;;5065675;28;20293;-75
2021/03/23 12:36:59;;;;;;;2.87;2.20;;;9.50;53.70;8.90;97156.00;;;;5063908;28;20212;-77
2021/03/23 12:39:47;;;;;;;5.03;2.00;;;9.60;54.60;9.00;97155.00;;;;5065259;28;20207;-76
2021/03/23 12:42:35;;;;;;;3.10;1.80;;;9.70;54.60;9.20;97157.00;;;;5075073;28;20211;-75
2021/03/23 12:45:33;;;;;;;2.60;1.80;;;9.90;53.90;9.00;97092.00;;;;5080311;28;20222;-76
2021/03/23 12:48:21;;;;;;;5.33;2.30;;;9.90;54.10;9.70;97114.00;;;;5079061;28;20231;-74
2021/03/23 12:51:21;;;;;;;5.00;3.20;;;10.20;53.80;11.50;97085.00;;;;5069292;28;20485;-72
2021/03/23 12:54:19;;;;;;;4.70;3.10;;;10.70;54.70;10.90;97164.00;;;;5068113;28;20204;-72
2021/03/23 12:57:41;;;;;;;2.87;2.40;;;11.10;53.80;11.20;97156.00;;;;5064609;28;20211;-73
2021/03/23 13:00:33;;;;;;;3.87;2.80;;;11.50;52.60;10.50;97147.00;;;;5077420;28;20199;-74
2021/03/23 13:03:21;;;;;;;5.93;2.97;;;11.60;51.60;10.50;97125.00;;;;5074926;28;20279;-71
2021/03/23 13:06:14;;;;;;;4.37;1.67;;;11.50;52.40;9.90;97154.00;;;;5069045;28;20227;-73